Time;durP1;ratioP1;P1;durP2;ratioP2;P2;SDS_P1;SDS_P2;PMS_P1;PMS_P2;Temp;Humidity;BMP_temperature;BMP_pressure;BME280_temperature;BME280_humidity;BME280_pressure;Samples;Min_cycle;Max_cycle;Signal;HPM_P1;HPM_P2
2022/08/11 00:01:25;;;;;;;2.83;2.62;;;;;;;18.38;91.63;100651.21;1633968;86;21385;-65
2022/08/11 00:03:59;;;;;;;4.65;2.85;;;;;;;18.35;91.35;100645.76;1665789;85;21017;-63
2022/08/11 00:06:34;;;;;;;2.98;2.87;;;;;;;18.30;91.56;100636.18;1666210;84;21518;-63
2022/08/11 00:09:04;;;;;;;3.40;2.55;;;;;;;18.28;91.95;100628.84;1636260;86;21042;-63
2022/08/11 00:11:52;;;;;;;4.15;2.45;;;;;;;18.25;91.80;100617.16;1667606;84;21020;-64
2022/08/11 00:14:27;;;;;;;2.17;2.00;;;;;;;18.21;92.55;100605.20;1651099;85;21012;-63
2022/08/11 00:17:02;;;;;;;4.20;2.70;;;;;;;18.13;92.54;100611.75;1663975;85;21017;-63
2022/08/11 00:19:33;;;;;;;3.00;2.60;;;;;;;18.15;92.61;100623.13;1659505;85;21145;-63
2022/08/11 00:22:01;;;;;;;2.85;2.75;;;;;;;18.19;92.39;100620.27;1650530;85;21106;-64
2022/08/11 00:24:36;;;;;;;2.33;2.22;;;;;;;17.90;92.10;100573.42;1675228;84;21033;-63
2022/08/11 00:27:04;;;;;;;3.00;2.77;;;;;;;18.21;92.28;100616.80;1689209;83;21043;-64
2022/08/11 00:29:32;;;;;;;2.65;2.25;;;;;;;18.19;92.52;100622.95;1671027;85;21010;-65
2022/08/11 00:32:02;;;;;;;2.17;2.08;;;;;;;18.16;91.97;100618.55;1654835;85;21050;-65
2022/08/11 00:34:33;;;;;;;5.65;2.90;;;;;;;18.15;92.02;100626.36;1679520;84;21474;-65
2022/08/11 00:37:09;;;;;;;2.83;2.62;;;;;;;18.15;92.17;100629.87;1688526;83;21027;-65
2022/08/11 00:39:46;;;;;;;2.25;2.15;;;;;;;18.15;91.91;100625.83;1716959;82;21784;-65
2022/08/11 00:42:47;;;;;;;2.10;1.85;;;;;;;18.14;92.36;100624.70;1688577;83;21003;-65
2022/08/11 00:45:40;;;;;;;2.52;2.05;;;;;;;18.08;92.70;100625.95;1694948;82;21006;-65
2022/08/11 00:48:36;;;;;;;2.80;2.70;;;;;;;17.97;93.50;100624.05;1676796;84;21080;-63
2022/08/11 00:51:48;;;;;;;5.35;2.70;;;;;;;17.88;93.92;100620.84;1644142;84;21351;-64
2022/08/11 00:54:56;;;;;;;5.30;1.95;;;;;;;17.83;94.23;100625.24;1665572;84;21086;-64
2022/08/11 00:57:44;;;;;;;2.72;2.52;;;;;;;17.79;95.07;100624.88;1659748;84;21029;-63
2022/08/11 01:00:15;;;;;;;2.22;2.12;;;;;;;17.81;94.71;100624.66;1639217;86;21585;-63
2022/08/11 01:03:16;;;;;;;2.33;2.17;;;;;;;17.83;94.54;100621.20;1635462;86;21105;-64
2022/08/11 01:06:18;;;;;;;3.47;2.65;;;;;;;17.84;94.78;100622.86;1634245;86;21164;-64
2022/08/11 01:09:20;;;;;;;3.35;2.40;;;;;;;17.79;95.05;100624.88;1620369;86;21317;-64
2022/08/11 01:12:20;;;;;;;2.60;2.42;;;;;;;17.71;95.98;100626.56;1673955;84;21025;-65
2022/08/11 01:15:23;;;;;;;3.05;2.85;;;;;;;17.62;96.87;100623.34;1676755;84;21702;-63
2022/08/11 01:18:35;;;;;;;4.50;3.27;;;;;;;17.60;97.24;100617.90;1686014;84;21007;-63
2022/08/11 01:21:31;;;;;;;2.90;2.75;;;;;;;17.58;97.47;100623.51;1684467;84;22203;-63
2022/08/11 01:24:39;;;;;;;2.98;2.77;;;;;;;17.59;97.81;100615.70;1674708;84;21059;-63
2022/08/11 01:27:35;;;;;;;2.70;2.35;;;;;;;17.59;97.71;100613.01;1664375;84;21031;-63
2022/08/11 01:30:22;;;;;;;2.80;2.67;;;;;;;17.61;97.76;100608.23;1664615;84;21112;-63
2022/08/11 01:33:27;;;;;;;6.20;3.27;;;;;;;17.60;97.67;100613.31;1673501;84;21053;-63
2022/08/11 01:36:51;;;;;;;2.70;2.60;;;;;;;17.63;97.96;100615.57;1666193;84;21504;-64
2022/08/11 01:39:46;;;;;;;3.58;3.20;;;;;;;17.71;97.35;100613.89;1679775;84;21697;-64
2022/08/11 01:45:56;;;;;;;3.25;3.05;;;;;;;17.75;96.60;100601.31;1636792;84;21129;-63
2022/08/11 01:48:49;;;;;;;3.05;2.92;;;;;;;17.70;96.53;100602.80;1650494;85;21575;-63
2022/08/11 01:51:55;;;;;;;2.72;2.52;;;;;;;17.61;96.66;100597.96;1659373;84;21065;-63
2022/08/11 01:54:42;;;;;;;2.83;2.65;;;;;;;17.67;96.95;100603.27;1666147;84;21114;-63
2022/08/11 01:57:59;;;;;;;2.20;2.10;;;;;;;17.71;96.57;100600.95;1647234;85;21064;-63
2022/08/11 02:00:29;;;;;;;2.58;2.22;;;;;;;17.76;96.10;100586.77;1635313;86;21041;-65
2022/08/11 02:03:13;;;;;;;2.17;2.08;;;;;;;17.77;95.72;100592.47;1619333;85;21093;-64
2022/08/11 02:09:34;;;;;;;3.50;2.72;;;;;;;17.77;95.47;100595.16;1644539;85;21830;-64
2022/08/11 02:12:11;;;;;;;2.47;2.37;;;;;;;17.73;95.51;100592.64;1642915;85;21033;-64
2022/08/11 02:15:08;;;;;;;2.55;2.27;;;;;;;17.73;95.31;100598.03;1632708;86;21602;-63
2022/08/11 02:17:58;;;;;;;3.40;3.10;;;;;;;17.76;95.04;100596.20;1629919;86;21550;-64
2022/08/11 02:24:02;;;;;;;2.95;2.75;;;;;;;17.74;95.30;100590.22;1645040;85;21031;-65
2022/08/11 02:26:34;;;;;;;2.02;1.92;;;;;;;17.65;95.33;100599.14;1648953;85;21105;-65
2022/08/11 02:29:23;;;;;;;3.12;2.92;;;;;;;17.65;95.33;100599.14;1647936;85;21104;-64
2022/08/11 02:34:58;;;;;;;3.12;2.92;;;;;;;17.59;96.22;100587.94;1662128;84;21031;-64
2022/08/11 02:37:35;;;;;;;4.80;2.80;;;;;;;17.62;95.91;100582.91;1661274;85;20987;-63
2022/08/11 02:40:09;;;;;;;2.25;2.10;;;;;;;17.66;95.79;100580.59;1662702;85;21643;-64
2022/08/11 02:42:47;;;;;;;2.27;2.17;;;;;;;17.65;95.34;100583.81;1656800;85;21053;-63
2022/08/11 02:45:57;;;;;;;2.45;2.35;;;;;;;17.62;95.41;100586.14;1616957;85;21041;-64
2022/08/11 02:52:10;;;;;;;4.22;3.87;;;;;;;17.59;95.70;100592.80;1662863;85;20996;-60
2022/08/11 02:55:18;;;;;;;3.87;3.58;;;;;;;17.57;95.76;100586.00;1671205;85;21288;-61
2022/08/11 02:58:16;;;;;;;;;;;;;;;17.53;96.07;100582.13;1615275;87;21155;-61
2022/08/11 03:01:03;;;;;;;3.95;3.08;;;;;;;17.47;96.45;100586.55;1660122;85;20118;-61
2022/08/11 03:03:44;;;;;;;3.05;2.95;;;;;;;17.39;96.81;100586.88;1652085;85;21059;-60
2022/08/11 03:06:34;;;;;;;5.28;3.20;;;;;;;17.35;97.46;100582.97;1656386;85;21047;-60
2022/08/11 03:09:09;;;;;;;3.35;3.05;;;;;;;17.35;97.59;100577.58;1669998;85;21166;-60
2022/08/11 03:18:13;;;;;;;2.85;2.65;;;;;;;17.34;97.48;100569.21;1680098;84;21091;-62
2022/08/11 03:21:06;;;;;;;2.87;2.77;;;;;;;17.37;97.97;100577.67;1698672;84;21330;-61
2022/08/11 03:23:38;;;;;;;3.20;2.95;;;;;;;17.39;97.40;100580.95;1670434;84;21164;-62
2022/08/11 03:26:28;;;;;;;3.95;3.00;;;;;;;17.44;97.14;100593.73;1660548;85;21003;-61
2022/08/11 03:29:24;;;;;;;2.45;2.25;;;;;;;17.43;96.67;100605.05;1659685;85;21031;-62
2022/08/11 03:32:19;;;;;;;4.45;2.75;;;;;;;17.43;96.67;100605.05;1633322;87;21106;-61
2022/08/11 03:34:48;;;;;;;2.87;2.12;;;;;;;16.74;97.12;100516.37;1656071;85;21011;-64
2022/08/11 03:44:10;;;;;;;2.67;2.35;;;;;;;17.32;97.48;100593.15;1653466;85;21074;-63
2022/08/11 03:47:11;;;;;;;2.27;2.05;;;;;;;17.32;97.48;100593.15;1626432;87;21266;-61
2022/08/11 03:50:06;;;;;;;3.15;2.70;;;;;;;17.35;97.73;100591.05;1653158;85;21084;-62
2022/08/11 03:52:52;;;;;;;3.52;3.22;;;;;;;17.32;97.84;100592.33;1656371;85;21569;-63
2022/08/11 03:56:04;;;;;;;3.45;3.30;;;;;;;17.29;97.91;100592.27;1657705;84;21015;-61
2022/08/11 03:58:53;;;;;;;2.75;2.55;;;;;;;17.34;97.95;100590.77;1673949;84;21032;-64
2022/08/11 04:01:51;;;;;;;3.33;2.37;;;;;;;17.36;97.72;100580.58;1665820;84;20996;-62
2022/08/11 04:04:57;;;;;;;4.03;3.65;;;;;;;17.40;97.41;100580.42;1664887;85;21104;-63
2022/08/11 04:07:51;;;;;;;3.25;2.95;;;;;;;17.40;97.36;100585.81;1663544;85;21080;-62
2022/08/11 04:11:01;;;;;;;2.77;2.67;;;;;;;17.35;97.44;100599.13;1661948;85;21080;-63
2022/08/11 04:15:59;;;;;;;5.55;3.67;;;;;;;17.32;97.46;100599.88;1639068;85;21148;-62
2022/08/11 04:16:48;;;;;;;3.40;3.15;;;;;;;17.29;98.40;100601.70;1670392;84;21047;-63
2022/08/11 04:19:56;;;;;;;3.70;3.45;;;;;;;17.30;98.29;100593.91;1674954;84;21073;-62
2022/08/11 04:22:38;;;;;;;;;;;;;;;17.34;98.39;100585.38;1568320;88;21237;-62
2022/08/11 04:25:32;;;;;;;3.70;3.40;;;;;;;17.34;98.55;100570.56;1579779;89;20192;-61
2022/08/11 04:28:45;;;;;;;4.10;3.87;;;;;;;17.34;98.55;100570.56;1615818;86;21074;-63
2022/08/11 04:31:36;;;;;;;4.03;3.60;;;;;;;17.32;98.44;100568.91;1631865;86;21046;-62
2022/08/11 04:34:36;;;;;;;4.50;4.10;;;;;;;17.34;98.54;100570.03;1632286;85;21621;-62
2022/08/11 04:37:33;;;;;;;3.72;3.52;;;;;;;17.34;98.86;100581.34;1638898;85;21047;-63
2022/08/11 04:40:49;;;;;;;4.72;4.47;;;;;;;17.38;98.53;100574.44;1649311;85;21296;-60
2022/08/11 04:44:00;;;;;;;4.50;4.20;;;;;;;17.39;98.56;100573.41;1639280;85;21716;-62
2022/08/11 04:46:43;;;;;;;4.30;4.00;;;;;;;17.39;99.05;100537.84;1655638;86;21065;-68
2022/08/11 05:02:16;;;;;;;4.90;4.58;;;;;;;17.44;98.97;100537.14;1667142;84;21279;-65
2022/08/11 05:08:27;;;;;;;5.47;5.12;;;;;;;17.51;98.50;100552.70;1662350;84;21123;-64
2022/08/11 05:11:21;;;;;;;5.85;5.20;;;;;;;17.54;98.50;100550.91;1672720;84;21120;-68
2022/08/11 05:34:53;;;;;;;4.92;4.42;;;;;;;17.32;100.00;100590.45;1669337;83;21150;-64
2022/08/11 05:37:33;;;;;;;7.20;5.00;;;;;;;17.36;100.00;100619.66;1689001;83;21001;-64
2022/08/11 05:57:25;;;;;;;5.92;4.92;;;;;;;17.60;100.00;100597.15;1663848;85;21022;-67
2022/08/11 05:59:59;;;;;;;5.75;5.25;;;;;;;17.66;100.00;100602.97;1655905;85;21050;-66
2022/08/11 06:02:26;;;;;;;4.75;4.45;;;;;;;17.73;99.75;100607.47;1657101;85;21526;-66
2022/08/11 06:04:59;;;;;;;10.43;5.53;;;;;;;17.77;99.57;100604.06;1605397;88;21058;-67
2022/08/11 06:07:32;;;;;;;5.70;5.25;;;;;;;17.80;99.38;100590.64;1612648;87;21729;-63
2022/08/11 06:09:59;;;;;;;6.03;5.45;;;;;;;17.85;99.61;100599.72;1613359;87;21047;-66
2022/08/11 06:12:31;;;;;;;5.58;4.85;;;;;;;17.95;98.93;100620.76;1595744;87;21087;-65
2022/08/11 06:15:05;;;;;;;5.05;4.62;;;;;;;18.05;98.48;100621.00;1597113;87;20995;-66
2022/08/11 06:17:35;;;;;;;6.30;4.42;;;;;;;18.16;97.29;100625.30;1613254;87;21103;-67
2022/08/11 06:20:06;;;;;;;5.17;3.95;;;;;;;18.09;97.33;100607.88;1612956;87;21027;-69
2022/08/11 06:22:34;;;;;;;4.85;3.33;;;;;;;18.22;97.45;100613.59;1630138;85;21021;-70
2022/08/11 06:25:03;;;;;;;4.53;4.33;;;;;;;18.33;97.91;100614.14;1694102;83;21036;-71
2022/08/11 06:27:33;;;;;;;4.47;4.17;;;;;;;18.53;97.21;100610.27;1682203;85;21077;-67
2022/08/11 06:30:02;;;;;;;4.08;3.70;;;;;;;18.64;95.11;100616.20;1651873;85;21090;-67
2022/08/11 06:32:32;;;;;;;3.77;3.58;;;;;;;18.68;95.01;100616.02;1673677;83;21030;-66
2022/08/11 06:35:15;;;;;;;4.12;3.83;;;;;;;18.70;95.20;100619.30;1668042;83;21015;-70
2022/08/11 06:38:09;;;;;;;7.20;4.25;;;;;;;18.73;94.60;100609.92;1692284;83;21201;-69
2022/08/11 06:44:04;;;;;;;5.97;3.77;;;;;;;18.78;94.92;100621.67;1686653;83;21107;-67
2022/08/11 06:46:43;;;;;;;3.65;3.42;;;;;;;18.80;94.37;100633.08;1651383;85;21514;-66
2022/08/11 06:52:03;;;;;;;3.42;3.22;;;;;;;18.80;94.31;100624.98;1681540;83;21025;-61
2022/08/11 06:54:35;;;;;;;7.15;3.95;;;;;;;18.83;93.73;100617.73;1669767;84;21054;-63
2022/08/11 07:03:07;;;;;;;2.98;2.77;;;;;;;18.82;93.54;100643.66;1664335;84;21045;-66
2022/08/11 07:05:54;;;;;;;4.15;3.55;;;;;;;18.82;93.22;100659.32;1651392;85;21085;-66
2022/08/11 07:17:24;;;;;;;4.78;3.02;;;;;;;18.83;93.11;100660.95;1674733;84;21088;-69
2022/08/11 07:31:16;;;;;;;4.67;3.40;;;;;;;18.78;95.19;100616.77;1693916;83;21018;-70
2022/08/11 07:33:50;;;;;;;4.62;4.33;;;;;;;18.59;97.78;100582.33;1676539;84;21367;-71
2022/08/11 07:36:18;;;;;;;5.97;5.42;;;;;;;18.37;99.59;100589.67;1690916;83;21069;-68
2022/08/11 07:38:50;;;;;;;5.03;4.72;;;;;;;18.27;99.93;100602.91;1687718;83;21104;-69
2022/08/11 07:41:21;;;;;;;5.72;4.40;;;;;;;18.18;100.00;100609.73;1698207;83;21006;-70
2022/08/11 07:43:51;;;;;;;5.47;4.95;;;;;;;18.12;100.00;100605.23;1692684;84;21001;-70
2022/08/11 07:54:40;;;;;;;4.17;3.52;;;;;;;18.18;100.00;100601.62;1711953;81;21033;-68
2022/08/11 08:19:19;;;;;;;7.03;5.30;;;;;;;18.44;100.00;100619.23;1659788;86;21452;-63
2022/08/11 08:21:46;;;;;;;4.55;4.17;;;;;;;18.43;100.00;100629.22;1642385;86;21567;-63
2022/08/11 08:24:14;;;;;;;3.55;3.35;;;;;;;18.43;100.00;100625.17;1611187;86;21978;-64
2022/08/11 08:26:57;;;;;;;3.37;3.27;;;;;;;18.48;100.00;100638.80;1638176;86;21558;-65
2022/08/11 08:32:20;;;;;;;2.50;2.40;;;;;;;18.55;100.00;100635.97;1627560;86;21142;-63
2022/08/11 08:34:49;;;;;;;2.47;2.25;;;;;;;18.61;100.00;100626.11;1648612;86;20961;-62
2022/08/11 08:37:22;;;;;;;2.90;2.47;;;;;;;18.65;100.00;100632.17;1655154;85;20998;-63
2022/08/11 08:39:49;;;;;;;2.12;2.02;;;;;;;18.66;100.00;100628.94;1647942;86;21110;-62
2022/08/11 08:42:29;;;;;;;2.15;2.10;;;;;;;18.72;100.00;100640.14;1643552;86;21081;-64
2022/08/11 08:45:06;;;;;;;2.33;2.22;;;;;;;18.77;100.00;100630.81;1613452;88;21061;-62
2022/08/11 08:47:48;;;;;;;3.10;1.50;;;;;;;18.82;100.00;100633.66;1618070;86;21530;-63
2022/08/11 08:50:22;;;;;;;1.50;1.40;;;;;;;18.90;100.00;100624.92;1628931;86;21067;-64
2022/08/11 08:52:58;;;;;;;2.35;2.12;;;;;;;18.93;100.00;100617.67;1643424;86;21037;-65
2022/08/11 08:55:27;;;;;;;4.90;1.70;;;;;;;18.92;100.00;100618.21;1628393;86;20965;-67
2022/08/11 08:57:59;;;;;;;2.70;2.60;;;;;;;18.96;100.00;100623.96;1643185;86;20956;-65
2022/08/11 09:00:24;;;;;;;2.12;2.02;;;;;;;18.97;100.00;100631.84;1631679;86;21217;-64
2022/08/11 09:02:51;;;;;;;2.62;2.55;;;;;;;18.94;100.00;100620.14;1643646;86;21087;-65
2022/08/11 09:05:18;;;;;;;2.37;2.27;;;;;;;18.89;100.00;100615.16;1632066;87;21114;-65
2022/08/11 09:07:49;;;;;;;2.70;2.40;;;;;;;18.85;100.00;100611.60;1641736;86;21110;-64
2022/08/11 09:10:19;;;;;;;3.70;3.47;;;;;;;18.86;100.00;100604.31;1632990;86;21055;-62
2022/08/11 09:12:46;;;;;;;3.37;3.17;;;;;;;18.90;100.00;100606.83;1646485;84;21539;-65
2022/08/11 09:15:15;;;;;;;3.65;3.47;;;;;;;18.95;100.00;100620.45;1618270;87;21636;-63
2022/08/11 09:17:48;;;;;;;3.95;3.70;;;;;;;19.01;100.00;100620.03;1630676;86;21026;-63
2022/08/11 09:20:21;;;;;;;3.47;3.35;;;;;;;19.15;99.72;100615.17;1657975;86;21052;-64
2022/08/11 09:28:21;;;;;;;3.87;3.67;;;;;;;19.69;97.74;100610.84;1612849;87;21079;-62
2022/08/11 09:30:54;;;;;;;4.37;3.12;;;;;;;19.80;96.71;100613.52;1655416;85;21514;-66
2022/08/11 09:33:22;;;;;;;3.40;3.30;;;;;;;19.95;95.59;100617.56;1612898;86;21020;-65
2022/08/11 09:35:51;;;;;;;3.67;3.00;;;;;;;20.05;95.47;100608.25;1590273;88;21059;-64
2022/08/11 09:41:09;;;;;;;3.67;3.45;;;;;;;20.17;94.46;100615.78;1602313;88;21042;-63
2022/08/11 09:46:27;;;;;;;4.00;3.77;;;;;;;20.32;93.56;100613.83;1617690;87;21122;-64
2022/08/11 09:48:58;;;;;;;3.27;3.17;;;;;;;20.38;93.85;100607.45;1588649;88;21107;-64
2022/08/11 09:51:30;;;;;;;4.53;4.33;;;;;;;20.49;92.29;100607.05;1593993;88;21151;-65
2022/08/11 09:54:05;;;;;;;3.40;3.20;;;;;;;20.58;91.34;100606.92;1579560;88;20999;-65
2022/08/11 09:59:19;;;;;;;3.30;3.10;;;;;;;20.55;90.29;100600.67;1646053;85;21073;-63
2022/08/11 10:01:49;;;;;;;3.25;3.05;;;;;;;20.60;89.66;100598.59;1626446;85;21048;-63
2022/08/11 10:04:20;;;;;;;2.67;2.58;;;;;;;20.68;90.72;100601.41;1599080;88;21067;-63
2022/08/11 10:07:02;;;;;;;3.33;3.05;;;;;;;20.77;90.88;100596.66;1627647;87;21103;-64
2022/08/11 10:10:00;;;;;;;3.72;3.62;;;;;;;20.91;89.53;100599.03;1590581;88;21155;-65
2022/08/11 10:12:34;;;;;;;3.40;3.25;;;;;;;21.05;87.83;100598.12;1623159;85;21133;-63
2022/08/11 10:20:49;;;;;;;3.45;3.35;;;;;;;21.57;86.72;100600.39;1601921;87;21028;-63
2022/08/11 10:28:46;;;;;;;3.17;3.08;;;;;;;21.87;83.42;100610.73;1652613;84;21047;-62
2022/08/11 10:34:02;;;;;;;3.80;3.58;;;;;;;21.97;82.18;100594.52;1656095;84;21062;-66
2022/08/11 10:37:35;;;;;;;4.00;3.80;;;;;;;22.01;81.28;100606.23;1798002;78;22897;-64
2022/08/11 10:40:00;;;;;;;3.92;3.75;;;;;;;21.94;82.07;100597.77;1763579;80;21010;-65
2022/08/11 10:47:59;;;;;;;3.80;3.60;;;;;;;21.87;82.98;100586.82;1703193;84;21030;-63
2022/08/11 10:58:49;;;;;;;2.90;2.80;;;;;;;21.99;82.86;100566.32;1712828;81;21055;-64
2022/08/11 11:01:23;;;;;;;4.47;4.08;;;;;;;22.02;83.03;100553.57;1725332;81;21104;-64
2022/08/11 11:03:57;;;;;;;5.00;4.70;;;;;;;22.01;82.95;100563.62;1704464;82;21033;-66
2022/08/11 11:06:58;;;;;;;4.03;3.83;;;;;;;22.09;83.35;100559.61;1699077;82;21125;-65
2022/08/11 11:09:31;;;;;;;3.58;3.30;;;;;;;22.21;83.10;100560.25;1708317;83;21222;-64
2022/08/11 11:17:56;;;;;;;4.05;3.52;;;;;;;22.47;81.30;100568.58;1715836;82;21319;-65
2022/08/11 11:20:37;;;;;;;3.67;3.47;;;;;;;22.54;81.13;100566.47;1707277;82;21020;-64
2022/08/11 11:23:26;;;;;;;3.60;3.40;;;;;;;22.61;80.80;100559.45;1711301;81;21551;-63
2022/08/11 11:26:06;;;;;;;3.83;3.52;;;;;;;22.72;81.04;100564.67;1701028;83;21072;-65
2022/08/11 11:28:53;;;;;;;3.27;3.17;;;;;;;22.82;79.76;100556.30;1702319;82;21017;-64
2022/08/11 11:31:51;;;;;;;3.60;3.40;;;;;;;22.90;78.89;100548.98;1702939;83;21560;-64
2022/08/11 11:34:58;;;;;;;3.05;2.95;;;;;;;22.98;78.18;100545.77;1699619;82;20967;-65
2022/08/11 11:37:25;;;;;;;4.10;3.90;;;;;;;23.05;77.68;100544.18;1707221;82;21018;-67
2022/08/11 11:39:54;;;;;;;3.40;3.30;;;;;;;23.08;77.47;100549.91;1692075;82;20981;-64
2022/08/11 11:42:20;;;;;;;3.33;3.15;;;;;;;22.85;77.25;100509.03;1705151;82;21076;-66
2022/08/11 11:44:47;;;;;;;3.65;3.45;;;;;;;23.18;78.01;100553.75;1701007;82;20999;-65
2022/08/11 11:47:18;;;;;;;3.10;3.00;;;;;;;23.14;77.75;100548.02;1714013;83;21097;-66
2022/08/11 11:49:45;;;;;;;3.22;3.02;;;;;;;23.15;78.34;100550.19;1708000;82;21826;-69
2022/08/11 11:52:17;;;;;;;3.37;3.17;;;;;;;23.20;79.07;100557.02;1713447;82;21010;-67
2022/08/11 11:54:49;;;;;;;3.72;3.52;;;;;;;23.27;78.74;100561.66;1710223;82;20989;-69
2022/08/11 12:02:55;;;;;;;2.42;2.40;;;;;;;23.34;78.47;100560.88;1719117;81;21053;-68
2022/08/11 12:05:21;;;;;;;3.77;3.65;;;;;;;23.39;78.63;100564.13;1702195;82;20994;-70
2022/08/11 12:10:33;;;;;;;3.65;3.55;;;;;;;23.32;78.80;100584.80;1710811;82;21428;-67
2022/08/11 12:15:47;;;;;;;3.98;3.87;;;;;;;23.19;79.43;100563.52;1700152;82;20988;-68
2022/08/11 12:18:15;;;;;;;4.20;4.00;;;;;;;23.19;80.20;100555.36;1703607;82;21555;-69
2022/08/11 12:20:43;;;;;;;4.80;4.40;;;;;;;23.25;80.20;100544.80;1710003;82;21834;-68
2022/08/11 12:28:44;;;;;;;3.08;2.98;;;;;;;23.46;79.82;100544.30;1676128;84;21132;-67
2022/08/11 12:31:11;;;;;;;4.17;3.90;;;;;;;23.49;80.18;100551.38;1675113;84;21565;-66
2022/08/11 12:33:42;;;;;;;3.75;3.55;;;;;;;23.55;79.88;100548.13;1658887;84;21601;-66
2022/08/11 12:36:14;;;;;;;4.05;3.85;;;;;;;23.64;79.24;100553.83;1654296;85;21137;-67
2022/08/11 12:38:41;;;;;;;3.80;3.58;;;;;;;23.75;78.76;100563.64;1655289;85;22216;-66
2022/08/11 12:46:41;;;;;;;4.25;4.05;;;;;;;24.02;77.18;100572.15;1656567;85;20983;-65
2022/08/11 12:52:11;;;;;;;6.22;5.62;;;;;;;24.16;74.80;100574.58;1652994;85;20975;-68
2022/08/11 12:54:53;;;;;;;4.67;4.35;;;;;;;24.24;74.21;100565.03;1655841;85;21539;-66
2022/08/11 13:05:55;;;;;;;4.60;4.20;;;;;;;24.45;70.83;100566.65;1710519;82;21731;-66
2022/08/11 13:08:24;;;;;;;4.60;4.22;;;;;;;24.51;67.90;100572.91;1712511;82;21081;-67
2022/08/11 13:13:39;;;;;;;5.33;5.03;;;;;;;24.63;67.57;100570.71;1713053;82;20973;-67
2022/08/11 13:16:06;;;;;;;5.55;5.15;;;;;;;24.69;67.06;100590.59;1712075;82;20985;-67
2022/08/11 13:18:33;;;;;;;5.67;5.15;;;;;;;24.66;66.62;100570.72;1714051;82;21462;-66
2022/08/11 13:21:00;;;;;;;5.58;5.37;;;;;;;24.58;67.21;100570.75;1718979;82;21643;-66
2022/08/11 13:23:28;;;;;;;5.30;5.10;;;;;;;24.46;67.69;100564.18;1707159;82;20945;-67
2022/08/11 13:25:55;;;;;;;5.28;5.08;;;;;;;24.37;68.42;100576.72;1691958;84;20990;-68
2022/08/11 13:28:22;;;;;;;5.67;5.22;;;;;;;24.31;67.17;100567.48;1688827;83;20987;-70
2022/08/11 13:33:50;;;;;;;5.87;5.60;;;;;;;24.23;68.79;100554.69;1684370;83;21412;-65
2022/08/11 13:36:21;;;;;;;5.58;5.25;;;;;;;24.21;69.67;100548.70;1689392;83;20957;-67
2022/08/11 13:38:48;;;;;;;6.45;5.85;;;;;;;24.27;70.52;100550.88;1686752;83;21553;-67
2022/08/11 13:44:11;;;;;;;6.62;6.12;;;;;;;24.35;71.10;100539.97;1661961;83;20962;-67
2022/08/11 13:46:39;;;;;;;6.70;6.20;;;;;;;24.42;70.67;100533.69;1695841;83;21769;-65
2022/08/11 13:49:07;;;;;;;7.20;6.55;;;;;;;24.45;70.32;100531.79;1686155;83;20969;-68
2022/08/11 13:51:37;;;;;;;6.70;6.12;;;;;;;24.46;70.08;100533.41;1691589;83;21945;-67
2022/08/11 13:54:20;;;;;;;5.42;5.22;;;;;;;24.47;69.86;100550.84;1684002;83;21040;-67
2022/08/11 13:56:51;;;;;;;8.83;6.47;;;;;;;24.41;70.52;100541.58;1690856;82;21049;-66
2022/08/11 13:59:21;;;;;;;6.95;6.45;;;;;;;24.39;70.60;100535.07;1664847;83;21814;-66
2022/08/11 14:01:54;;;;;;;5.40;5.20;;;;;;;24.37;70.73;100542.67;1690696;83;21112;-66
2022/08/11 14:04:26;;;;;;;11.10;5.95;;;;;;;24.37;71.26;100545.40;1688482;83;21044;-65
2022/08/11 14:06:59;;;;;;;7.20;6.78;;;;;;;24.37;71.62;100547.31;1684656;83;21076;-66
2022/08/11 14:09:31;;;;;;;6.25;5.97;;;;;;;24.43;71.78;100544.84;1689371;83;21065;-67
2022/08/11 14:15:18;;;;;;;5.83;5.45;;;;;;;24.52;71.61;100554.67;1685958;83;21557;-65
2022/08/11 14:18:01;;;;;;;6.50;6.15;;;;;;;24.53;71.67;100550.31;1693513;83;21061;-67
2022/08/11 14:23:16;;;;;;;6.50;6.08;;;;;;;24.45;71.84;100556.31;1697580;83;20953;-65
2022/08/11 14:26:22;;;;;;;7.03;6.42;;;;;;;24.46;72.48;100547.02;1696129;83;21032;-66
2022/08/11 14:28:10;;;;;;;9.20;8.60;;;;;;;24.52;72.16;100551.95;1679693;83;20993;-67
2022/08/11 14:30:55;;;;;;;8.13;7.72;;;;;;;24.57;71.78;100544.58;1693511;83;21028;-67
2022/08/11 14:33:21;;;;;;;8.35;7.75;;;;;;;24.60;71.88;100537.22;1684518;81;21839;-68
2022/08/11 14:35:48;;;;;;;6.87;6.22;;;;;;;24.59;71.82;100541.02;1678395;83;21082;-66
2022/08/11 14:38:16;;;;;;;6.47;6.08;;;;;;;24.60;71.82;100543.19;1692568;83;20929;-68
2022/08/11 14:48:58;;;;;;;6.70;6.10;;;;;;;24.46;73.36;100536.13;1656269;85;21011;-68
2022/08/11 14:51:25;;;;;;;5.72;5.35;;;;;;;24.44;73.30;100536.95;1651974;85;21016;-64
2022/08/11 14:56:34;;;;;;;6.83;6.33;;;;;;;24.46;73.58;100541.58;1657396;85;21068;-66
2022/08/11 14:56:35;;;;;;;7.33;6.22;;;;;;;24.45;73.81;100541.33;1647628;85;21158;-67
2022/08/11 14:59:02;;;;;;;6.47;6.10;;;;;;;24.43;73.76;100531.22;1655814;85;21469;-65
2022/08/11 15:04:13;;;;;;;6.03;5.72;;;;;;;24.38;74.34;100530.70;1672170;84;21004;-70
2022/08/11 15:06:39;;;;;;;6.33;6.03;;;;;;;24.38;74.76;100527.17;1671881;84;21549;-65
2022/08/11 15:09:06;;;;;;;6.33;5.95;;;;;;;24.33;75.19;100529.34;1667599;84;21422;-68
2022/08/11 15:17:06;;;;;;;6.15;5.83;;;;;;;24.29;75.54;100532.34;1646284;85;21069;-66
2022/08/11 15:19:33;;;;;;;5.90;5.60;;;;;;;24.37;75.86;100536.42;1672049;84;21851;-65
2022/08/11 15:24:44;;;;;;;6.42;6.03;;;;;;;24.43;76.02;100535.30;1666618;84;21863;-70
2022/08/11 15:38:22;;;;;;;5.45;5.17;;;;;;;24.64;75.38;100535.56;1669564;84;21473;-67
2022/08/11 15:46:38;;;;;;;5.08;4.85;;;;;;;24.71;75.30;100535.81;1671727;84;20962;-66
2022/08/11 15:49:15;;;;;;;8.63;5.92;;;;;;;24.73;75.55;100539.07;1669255;84;21032;-64
2022/08/11 15:51:59;;;;;;;5.83;5.45;;;;;;;24.74;75.76;100533.34;1669399;84;21011;-66
2022/08/11 15:54:30;;;;;;;5.35;5.10;;;;;;;24.75;75.65;100534.99;1664670;84;20947;-68
2022/08/11 15:57:00;;;;;;;6.05;5.53;;;;;;;24.49;75.19;100485.98;1681255;83;20968;-67
2022/08/11 16:05:09;;;;;;;5.60;5.15;;;;;;;24.75;75.34;100515.08;1672533;84;20958;-68
2022/08/11 16:07:37;;;;;;;5.78;5.30;;;;;;;24.72;75.79;100526.00;1694787;83;21373;-68
2022/08/11 16:10:20;;;;;;;5.65;5.20;;;;;;;24.68;76.08;100524.92;1678602;84;21008;-67
2022/08/11 16:18:39;;;;;;;5.45;5.15;;;;;;;24.63;76.54;100521.66;1684566;83;20167;-67
2022/08/11 16:20:56;;;;;;;6.03;5.47;;;;;;;24.55;77.14;100518.16;1690434;82;21466;-68
2022/08/11 16:23:27;;;;;;;5.45;5.25;;;;;;;24.52;77.19;100517.33;1699709;82;21623;-70
2022/08/11 16:25:54;;;;;;;6.22;5.78;;;;;;;24.52;77.22;100522.78;1697935;83;20985;-67
2022/08/11 16:28:22;;;;;;;5.70;5.30;;;;;;;24.54;77.39;100515.70;1698059;83;21024;-66
2022/08/11 16:30:50;;;;;;;5.35;4.97;;;;;;;24.53;77.63;100515.45;1694329;83;21462;-66
2022/08/11 16:33:17;;;;;;;5.80;5.45;;;;;;;24.51;77.77;100521.14;1713207;81;21493;-66
2022/08/11 16:38:36;;;;;;;5.12;4.62;;;;;;;24.48;78.13;100514.31;1670477;84;21073;-69
2022/08/11 16:41:06;;;;;;;6.00;5.70;;;;;;;24.47;78.24;100520.06;1675685;84;21045;-68
2022/08/11 16:49:17;;;;;;;6.10;5.70;;;;;;;24.44;78.53;100520.61;1655402;86;20954;-66
2022/08/11 16:51:44;;;;;;;5.15;4.85;;;;;;;24.44;78.61;100524.14;1668942;85;21082;-68
2022/08/11 16:54:11;;;;;;;5.20;4.80;;;;;;;24.44;78.78;100528.22;1674481;84;20982;-67
2022/08/11 16:56:53;;;;;;;6.03;5.55;;;;;;;24.44;78.80;100527.42;1671257;84;21072;-68
2022/08/11 16:59:30;;;;;;;6.20;5.83;;;;;;;24.45;78.80;100533.16;1660281;85;20985;-66
2022/08/11 17:02:05;;;;;;;;;;;;;;;24.43;78.94;100529.86;1638759;85;21085;-69
2022/08/11 17:13:09;;;;;;;5.50;4.92;;;;;;;24.36;79.46;100538.33;1687899;85;20944;-70
2022/08/11 17:16:07;;;;;;;5.40;5.10;;;;;;;24.37;79.51;100536.42;1685357;85;21830;-68
2022/08/11 17:18:45;;;;;;;5.30;5.00;;;;;;;24.34;79.64;100536.44;1691297;84;20940;-67
2022/08/11 17:21:20;;;;;;;5.95;5.05;;;;;;;24.32;79.78;100537.78;1696356;83;21065;-69
2022/08/11 17:23:53;;;;;;;5.25;5.05;;;;;;;24.31;79.94;100542.98;1693513;83;20984;-70
2022/08/11 17:29:38;;;;;;;5.10;4.78;;;;;;;24.27;80.08;100544.88;1680023;83;20966;-67